sensor_id;sensor_type;location;lat;lon;timestamp;P1;durP1;ratioP1;P2;durP2;ratioP2
51248;SDS011;39642;47.556;18.728;2023-07-02T00:00:59;11.48;;;5.03;;
51248;SDS011;39642;47.556;18.728;2023-07-02T00:03:25;11.40;;;5.10;;
51248;SDS011;39642;47.556;18.728;2023-07-02T00:05:51;12.18;;;5.57;;
51248;SDS011;39642;47.556;18.728;2023-07-02T00:08:21;10.10;;;4.90;;
51248;SDS011;39642;47.556;18.728;2023-07-02T00:10:47;12.20;;;5.65;;
51248;SDS011;39642;47.556;18.728;2023-07-02T00:13:13;11.88;;;5.18;;
51248;SDS011;39642;47.556;18.728;2023-07-02T00:15:40;12.10;;;5.47;;
51248;SDS011;39642;47.556;18.728;2023-07-02T00:18:06;11.68;;;5.22;;
51248;SDS011;39642;47.556;18.728;2023-07-02T00:20:33;12.30;;;5.43;;
51248;SDS011;39642;47.556;18.728;2023-07-02T00:23:03;11.77;;;5.47;;
51248;SDS011;39642;47.556;18.728;2023-07-02T00:25:29;12.10;;;5.12;;
51248;SDS011;39642;47.556;18.728;2023-07-02T00:27:55;12.60;;;5.32;;
51248;SDS011;39642;47.556;18.728;2023-07-02T00:30:21;13.45;;;5.70;;
51248;SDS011;39642;47.556;18.728;2023-07-02T00:32:47;12.35;;;5.50;;
51248;SDS011;39642;47.556;18.728;2023-07-02T00:35:13;13.20;;;5.40;;
51248;SDS011;39642;47.556;18.728;2023-07-02T00:37:39;11.10;;;5.22;;
51248;SDS011;39642;47.556;18.728;2023-07-02T00:40:05;12.40;;;5.97;;
51248;SDS011;39642;47.556;18.728;2023-07-02T00:42:31;11.80;;;5.22;;
51248;SDS011;39642;47.556;18.728;2023-07-02T00:44:57;12.35;;;5.43;;
51248;SDS011;39642;47.556;18.728;2023-07-02T00:47:28;12.68;;;5.62;;
51248;SDS011;39642;47.556;18.728;2023-07-02T00:49:55;11.80;;;5.50;;
51248;SDS011;39642;47.556;18.728;2023-07-02T00:52:21;12.45;;;5.62;;
51248;SDS011;39642;47.556;18.728;2023-07-02T00:54:49;12.23;;;5.37;;
51248;SDS011;39642;47.556;18.728;2023-07-02T00:57:15;12.40;;;5.40;;
51248;SDS011;39642;47.556;18.728;2023-07-02T00:59:41;12.32;;;5.68;;
51248;SDS011;39642;47.556;18.728;2023-07-02T01:02:06;12.15;;;5.53;;
51248;SDS011;39642;47.556;18.728;2023-07-02T01:04:32;13.45;;;5.65;;
51248;SDS011;39642;47.556;18.728;2023-07-02T01:06:58;12.82;;;5.78;;
51248;SDS011;39642;47.556;18.728;2023-07-02T01:09:24;12.25;;;5.47;;
51248;SDS011;39642;47.556;18.728;2023-07-02T01:11:54;12.70;;;6.12;;
51248;SDS011;39642;47.556;18.728;2023-07-02T01:17:07;12.98;;;5.72;;
51248;SDS011;39642;47.556;18.728;2023-07-02T01:19:47;12.23;;;5.45;;
51248;SDS011;39642;47.556;18.728;2023-07-02T01:22:18;13.93;;;5.90;;
51248;SDS011;39642;47.556;18.728;2023-07-02T01:24:54;12.23;;;5.47;;
51248;SDS011;39642;47.556;18.728;2023-07-02T01:27:20;12.20;;;5.53;;
51248;SDS011;39642;47.556;18.728;2023-07-02T01:29:50;12.10;;;5.70;;
51248;SDS011;39642;47.556;18.728;2023-07-02T01:32:17;12.95;;;5.93;;
51248;SDS011;39642;47.556;18.728;2023-07-02T01:34:43;12.70;;;5.85;;
51248;SDS011;39642;47.556;18.728;2023-07-02T01:37:15;11.93;;;5.55;;
51248;SDS011;39642;47.556;18.728;2023-07-02T01:39:42;12.82;;;5.80;;
51248;SDS011;39642;47.556;18.728;2023-07-02T01:42:12;12.57;;;5.70;;
51248;SDS011;39642;47.556;18.728;2023-07-02T01:44:43;12.30;;;5.75;;
51248;SDS011;39642;47.556;18.728;2023-07-02T01:47:09;12.73;;;5.72;;
51248;SDS011;39642;47.556;18.728;2023-07-02T01:49:35;12.15;;;5.90;;
51248;SDS011;39642;47.556;18.728;2023-07-02T01:52:03;12.63;;;5.70;;
51248;SDS011;39642;47.556;18.728;2023-07-02T01:54:30;12.45;;;5.72;;
51248;SDS011;39642;47.556;18.728;2023-07-02T01:56:59;14.68;;;6.12;;
51248;SDS011;39642;47.556;18.728;2023-07-02T01:59:26;13.15;;;5.65;;
51248;SDS011;39642;47.556;18.728;2023-07-02T02:01:51;12.20;;;5.28;;
51248;SDS011;39642;47.556;18.728;2023-07-02T02:04:17;12.43;;;5.57;;
51248;SDS011;39642;47.556;18.728;2023-07-02T02:06:44;13.43;;;5.57;;
51248;SDS011;39642;47.556;18.728;2023-07-02T02:09:10;11.75;;;5.35;;
51248;SDS011;39642;47.556;18.728;2023-07-02T02:11:40;13.43;;;6.10;;
51248;SDS011;39642;47.556;18.728;2023-07-02T02:14:14;12.68;;;5.75;;
51248;SDS011;39642;47.556;18.728;2023-07-02T02:16:40;12.23;;;5.62;;
51248;SDS011;39642;47.556;18.728;2023-07-02T02:19:06;12.35;;;5.53;;
51248;SDS011;39642;47.556;18.728;2023-07-02T02:21:31;12.90;;;5.97;;
51248;SDS011;39642;47.556;18.728;2023-07-02T02:23:57;12.65;;;5.68;;
51248;SDS011;39642;47.556;18.728;2023-07-02T02:26:23;12.00;;;5.40;;
51248;SDS011;39642;47.556;18.728;2023-07-02T02:28:50;12.20;;;5.57;;
51248;SDS011;39642;47.556;18.728;2023-07-02T02:31:17;13.65;;;6.60;;
51248;SDS011;39642;47.556;18.728;2023-07-02T02:33:43;12.68;;;5.68;;
51248;SDS011;39642;47.556;18.728;2023-07-02T02:36:09;12.88;;;5.53;;
51248;SDS011;39642;47.556;18.728;2023-07-02T02:38:35;13.25;;;5.68;;
51248;SDS011;39642;47.556;18.728;2023-07-02T02:41:03;11.85;;;5.72;;
51248;SDS011;39642;47.556;18.728;2023-07-02T02:43:29;13.95;;;5.45;;
51248;SDS011;39642;47.556;18.728;2023-07-02T02:45:55;12.15;;;5.37;;
51248;SDS011;39642;47.556;18.728;2023-07-02T02:48:21;12.90;;;5.62;;
51248;SDS011;39642;47.556;18.728;2023-07-02T02:50:48;11.88;;;5.18;;
51248;SDS011;39642;47.556;18.728;2023-07-02T02:53:14;11.82;;;5.25;;
51248;SDS011;39642;47.556;18.728;2023-07-02T02:55:40;12.85;;;5.62;;
51248;SDS011;39642;47.556;18.728;2023-07-02T02:58:06;11.20;;;5.15;;
51248;SDS011;39642;47.556;18.728;2023-07-02T03:00:32;12.73;;;5.68;;
51248;SDS011;39642;47.556;18.728;2023-07-02T03:02:58;12.43;;;5.40;;
51248;SDS011;39642;47.556;18.728;2023-07-02T03:05:24;13.98;;;5.80;;
51248;SDS011;39642;47.556;18.728;2023-07-02T03:07:51;13.25;;;5.68;;
51248;SDS011;39642;47.556;18.728;2023-07-02T03:10:17;12.37;;;5.30;;
51248;SDS011;39642;47.556;18.728;2023-07-02T03:12:43;13.15;;;5.72;;
51248;SDS011;39642;47.556;18.728;2023-07-02T03:15:09;12.80;;;5.72;;
51248;SDS011;39642;47.556;18.728;2023-07-02T03:17:35;12.35;;;5.57;;
51248;SDS011;39642;47.556;18.728;2023-07-02T03:20:02;13.20;;;5.47;;
51248;SDS011;39642;47.556;18.728;2023-07-02T03:22:33;12.50;;;5.57;;
51248;SDS011;39642;47.556;18.728;2023-07-02T03:25:00;12.65;;;5.62;;
51248;SDS011;39642;47.556;18.728;2023-07-02T03:27:26;13.35;;;6.03;;
51248;SDS011;39642;47.556;18.728;2023-07-02T03:29:51;11.38;;;5.15;;
51248;SDS011;39642;47.556;18.728;2023-07-02T03:32:17;11.57;;;5.10;;
51248;SDS011;39642;47.556;18.728;2023-07-02T03:34:43;12.77;;;5.40;;
51248;SDS011;39642;47.556;18.728;2023-07-02T03:37:09;12.25;;;5.62;;
51248;SDS011;39642;47.556;18.728;2023-07-02T03:39:35;13.70;;;6.05;;
51248;SDS011;39642;47.556;18.728;2023-07-02T03:42:01;12.57;;;5.30;;
51248;SDS011;39642;47.556;18.728;2023-07-02T03:44:27;12.02;;;4.97;;
51248;SDS011;39642;47.556;18.728;2023-07-02T03:46:53;12.82;;;5.20;;
51248;SDS011;39642;47.556;18.728;2023-07-02T03:49:19;12.02;;;5.25;;
51248;SDS011;39642;47.556;18.728;2023-07-02T03:51:45;12.73;;;5.10;;
51248;SDS011;39642;47.556;18.728;2023-07-02T03:54:11;12.50;;;5.22;;
51248;SDS011;39642;47.556;18.728;2023-07-02T03:56:37;11.90;;;5.20;;
51248;SDS011;39642;47.556;18.728;2023-07-02T03:59:02;11.82;;;5.07;;
51248;SDS011;39642;47.556;18.728;2023-07-02T04:01:28;11.30;;;5.20;;
51248;SDS011;39642;47.556;18.728;2023-07-02T04:03:54;11.20;;;5.03;;
51248;SDS011;39642;47.556;18.728;2023-07-02T04:06:21;13.50;;;5.53;;
51248;SDS011;39642;47.556;18.728;2023-07-02T04:08:48;12.40;;;5.20;;
51248;SDS011;39642;47.556;18.728;2023-07-02T04:11:14;13.48;;;5.30;;
51248;SDS011;39642;47.556;18.728;2023-07-02T04:13:41;12.98;;;5.35;;
51248;SDS011;39642;47.556;18.728;2023-07-02T04:16:07;13.55;;;5.45;;
51248;SDS011;39642;47.556;18.728;2023-07-02T04:18:33;11.77;;;5.10;;
51248;SDS011;39642;47.556;18.728;2023-07-02T04:20:59;11.85;;;5.28;;
51248;SDS011;39642;47.556;18.728;2023-07-02T04:23:26;12.27;;;4.97;;
51248;SDS011;39642;47.556;18.728;2023-07-02T04:25:51;13.10;;;5.10;;
51248;SDS011;39642;47.556;18.728;2023-07-02T04:28:17;12.32;;;4.95;;
51248;SDS011;39642;47.556;18.728;2023-07-02T04:30:44;11.63;;;4.82;;
51248;SDS011;39642;47.556;18.728;2023-07-02T04:33:11;12.32;;;4.85;;
51248;SDS011;39642;47.556;18.728;2023-07-02T04:35:39;11.55;;;4.62;;
51248;SDS011;39642;47.556;18.728;2023-07-02T04:38:05;11.70;;;4.90;;
51248;SDS011;39642;47.556;18.728;2023-07-02T04:40:32;12.82;;;4.95;;
51248;SDS011;39642;47.556;18.728;2023-07-02T04:42:58;11.50;;;5.07;;
51248;SDS011;39642;47.556;18.728;2023-07-02T04:45:24;11.73;;;4.87;;
51248;SDS011;39642;47.556;18.728;2023-07-02T04:47:51;12.57;;;4.85;;
51248;SDS011;39642;47.556;18.728;2023-07-02T04:50:18;11.80;;;5.12;;
51248;SDS011;39642;47.556;18.728;2023-07-02T04:52:44;11.50;;;4.85;;
51248;SDS011;39642;47.556;18.728;2023-07-02T04:55:10;11.25;;;4.60;;
51248;SDS011;39642;47.556;18.728;2023-07-02T04:57:36;11.68;;;5.12;;
51248;SDS011;39642;47.556;18.728;2023-07-02T05:00:03;12.82;;;5.07;;
51248;SDS011;39642;47.556;18.728;2023-07-02T05:02:31;11.48;;;4.78;;
51248;SDS011;39642;47.556;18.728;2023-07-02T05:04:57;12.50;;;5.05;;
51248;SDS011;39642;47.556;18.728;2023-07-02T05:07:23;12.45;;;4.62;;
51248;SDS011;39642;47.556;18.728;2023-07-02T05:09:49;11.57;;;4.65;;
51248;SDS011;39642;47.556;18.728;2023-07-02T05:12:17;10.25;;;4.43;;
51248;SDS011;39642;47.556;18.728;2023-07-02T05:14:43;13.07;;;4.93;;
51248;SDS011;39642;47.556;18.728;2023-07-02T05:17:09;11.68;;;4.82;;
51248;SDS011;39642;47.556;18.728;2023-07-02T05:19:35;11.40;;;4.43;;
51248;SDS011;39642;47.556;18.728;2023-07-02T05:22:01;11.20;;;4.70;;
51248;SDS011;39642;47.556;18.728;2023-07-02T05:24:27;12.18;;;5.03;;
51248;SDS011;39642;47.556;18.728;2023-07-02T05:26:53;12.85;;;4.90;;
51248;SDS011;39642;47.556;18.728;2023-07-02T05:29:19;12.48;;;4.97;;
51248;SDS011;39642;47.556;18.728;2023-07-02T05:31:44;11.35;;;4.47;;
51248;SDS011;39642;47.556;18.728;2023-07-02T05:34:10;12.35;;;4.68;;
51248;SDS011;39642;47.556;18.728;2023-07-02T05:36:37;13.35;;;5.10;;
51248;SDS011;39642;47.556;18.728;2023-07-02T05:39:03;11.68;;;4.57;;
51248;SDS011;39642;47.556;18.728;2023-07-02T05:41:29;10.68;;;4.35;;
51248;SDS011;39642;47.556;18.728;2023-07-02T05:43:59;10.45;;;4.65;;
51248;SDS011;39642;47.556;18.728;2023-07-02T05:46:25;11.25;;;4.90;;
51248;SDS011;39642;47.556;18.728;2023-07-02T05:48:51;12.23;;;4.60;;
51248;SDS011;39642;47.556;18.728;2023-07-02T05:51:20;11.52;;;4.60;;
51248;SDS011;39642;47.556;18.728;2023-07-02T05:53:47;10.77;;;4.40;;
51248;SDS011;39642;47.556;18.728;2023-07-02T05:56:13;11.48;;;4.50;;
51248;SDS011;39642;47.556;18.728;2023-07-02T05:58:39;10.82;;;4.60;;
51248;SDS011;39642;47.556;18.728;2023-07-02T06:01:05;10.40;;;4.15;;
51248;SDS011;39642;47.556;18.728;2023-07-02T06:03:32;11.10;;;4.60;;
51248;SDS011;39642;47.556;18.728;2023-07-02T06:05:58;11.38;;;4.62;;
51248;SDS011;39642;47.556;18.728;2023-07-02T06:08:24;11.07;;;4.40;;
51248;SDS011;39642;47.556;18.728;2023-07-02T06:10:50;10.88;;;4.45;;
51248;SDS011;39642;47.556;18.728;2023-07-02T06:13:16;11.05;;;4.47;;
51248;SDS011;39642;47.556;18.728;2023-07-02T06:15:43;11.20;;;4.43;;
51248;SDS011;39642;47.556;18.728;2023-07-02T06:18:09;10.82;;;4.30;;
51248;SDS011;39642;47.556;18.728;2023-07-02T06:20:35;10.57;;;4.20;;
51248;SDS011;39642;47.556;18.728;2023-07-02T06:23:01;10.65;;;4.68;;
51248;SDS011;39642;47.556;18.728;2023-07-02T06:25:27;11.23;;;4.47;;
51248;SDS011;39642;47.556;18.728;2023-07-02T06:27:52;10.90;;;4.35;;
51248;SDS011;39642;47.556;18.728;2023-07-02T06:30:24;10.30;;;4.10;;
51248;SDS011;39642;47.556;18.728;2023-07-02T06:32:50;11.23;;;3.90;;
51248;SDS011;39642;47.556;18.728;2023-07-02T06:35:16;10.38;;;4.10;;
51248;SDS011;39642;47.556;18.728;2023-07-02T06:37:42;10.52;;;3.92;;
51248;SDS011;39642;47.556;18.728;2023-07-02T06:40:08;10.45;;;4.32;;
51248;SDS011;39642;47.556;18.728;2023-07-02T06:42:35;12.80;;;4.40;;
51248;SDS011;39642;47.556;18.728;2023-07-02T06:45:04;11.05;;;4.07;;
51248;SDS011;39642;47.556;18.728;2023-07-02T06:47:30;10.40;;;4.00;;
51248;SDS011;39642;47.556;18.728;2023-07-02T06:49:56;10.13;;;4.20;;
51248;SDS011;39642;47.556;18.728;2023-07-02T06:52:22;10.73;;;4.07;;
51248;SDS011;39642;47.556;18.728;2023-07-02T06:54:48;10.73;;;4.15;;
51248;SDS011;39642;47.556;18.728;2023-07-02T06:57:13;10.70;;;4.30;;
51248;SDS011;39642;47.556;18.728;2023-07-02T06:59:39;10.98;;;4.00;;
51248;SDS011;39642;47.556;18.728;2023-07-02T07:02:06;10.48;;;4.07;;
51248;SDS011;39642;47.556;18.728;2023-07-02T07:04:32;11.85;;;3.85;;
51248;SDS011;39642;47.556;18.728;2023-07-02T07:07:00;10.55;;;3.72;;
51248;SDS011;39642;47.556;18.728;2023-07-02T07:09:29;10.15;;;4.05;;
51248;SDS011;39642;47.556;18.728;2023-07-02T07:11:55;10.48;;;4.03;;
51248;SDS011;39642;47.556;18.728;2023-07-02T07:14:21;10.70;;;3.95;;
51248;SDS011;39642;47.556;18.728;2023-07-02T07:16:47;10.98;;;3.97;;
51248;SDS011;39642;47.556;18.728;2023-07-02T07:19:14;10.82;;;3.72;;
51248;SDS011;39642;47.556;18.728;2023-07-02T07:21:40;10.93;;;4.10;;
51248;SDS011;39642;47.556;18.728;2023-07-02T07:24:06;10.13;;;4.12;;
51248;SDS011;39642;47.556;18.728;2023-07-02T07:26:32;10.57;;;3.90;;
51248;SDS011;39642;47.556;18.728;2023-07-02T07:28:58;12.20;;;4.10;;
51248;SDS011;39642;47.556;18.728;2023-07-02T07:31:24;9.88;;;3.80;;
51248;SDS011;39642;47.556;18.728;2023-07-02T07:33:50;9.80;;;4.03;;
51248;SDS011;39642;47.556;18.728;2023-07-02T07:36:16;10.05;;;4.00;;
51248;SDS011;39642;47.556;18.728;2023-07-02T07:38:45;11.50;;;4.47;;
51248;SDS011;39642;47.556;18.728;2023-07-02T07:41:11;10.35;;;4.12;;
51248;SDS011;39642;47.556;18.728;2023-07-02T07:43:37;10.82;;;3.95;;
51248;SDS011;39642;47.556;18.728;2023-07-02T07:46:03;10.60;;;3.83;;
51248;SDS011;39642;47.556;18.728;2023-07-02T07:48:29;9.50;;;3.75;;
51248;SDS011;39642;47.556;18.728;2023-07-02T07:50:55;11.12;;;4.10;;
51248;SDS011;39642;47.556;18.728;2023-07-02T07:53:20;9.82;;;3.83;;
51248;SDS011;39642;47.556;18.728;2023-07-02T07:55:46;10.38;;;3.85;;
51248;SDS011;39642;47.556;18.728;2023-07-02T07:58:13;9.75;;;3.95;;
51248;SDS011;39642;47.556;18.728;2023-07-02T08:00:38;9.38;;;3.90;;
51248;SDS011;39642;47.556;18.728;2023-07-02T08:03:04;10.68;;;3.83;;
51248;SDS011;39642;47.556;18.728;2023-07-02T08:05:30;10.38;;;3.80;;
51248;SDS011;39642;47.556;18.728;2023-07-02T08:07:56;10.27;;;3.80;;
51248;SDS011;39642;47.556;18.728;2023-07-02T08:10:23;10.15;;;4.10;;
51248;SDS011;39642;47.556;18.728;2023-07-02T08:12:50;9.68;;;3.45;;
51248;SDS011;39642;47.556;18.728;2023-07-02T08:15:18;10.93;;;3.97;;
51248;SDS011;39642;47.556;18.728;2023-07-02T08:17:44;9.93;;;3.58;;
51248;SDS011;39642;47.556;18.728;2023-07-02T08:20:10;10.82;;;4.15;;
51248;SDS011;39642;47.556;18.728;2023-07-02T08:22:37;9.68;;;3.50;;
51248;SDS011;39642;47.556;18.728;2023-07-02T08:25:04;10.13;;;4.12;;
51248;SDS011;39642;47.556;18.728;2023-07-02T08:27:31;10.75;;;3.70;;
51248;SDS011;39642;47.556;18.728;2023-07-02T08:29:57;10.93;;;3.60;;
51248;SDS011;39642;47.556;18.728;2023-07-02T08:32:23;11.32;;;3.90;;
51248;SDS011;39642;47.556;18.728;2023-07-02T08:34:48;9.82;;;3.78;;
51248;SDS011;39642;47.556;18.728;2023-07-02T08:37:16;9.77;;;3.47;;
51248;SDS011;39642;47.556;18.728;2023-07-02T08:39:43;10.07;;;3.85;;
51248;SDS011;39642;47.556;18.728;2023-07-02T08:42:08;11.10;;;3.53;;
51248;SDS011;39642;47.556;18.728;2023-07-02T08:44:34;9.40;;;3.50;;
51248;SDS011;39642;47.556;18.728;2023-07-02T08:47:01;10.30;;;3.83;;
51248;SDS011;39642;47.556;18.728;2023-07-02T08:49:27;9.30;;;3.60;;
51248;SDS011;39642;47.556;18.728;2023-07-02T08:51:53;10.07;;;3.58;;
51248;SDS011;39642;47.556;18.728;2023-07-02T08:54:19;9.30;;;3.53;;
51248;SDS011;39642;47.556;18.728;2023-07-02T08:56:45;10.45;;;3.87;;
51248;SDS011;39642;47.556;18.728;2023-07-02T08:59:12;10.15;;;3.42;;
51248;SDS011;39642;47.556;18.728;2023-07-02T09:02:12;10.30;;;3.70;;
51248;SDS011;39642;47.556;18.728;2023-07-02T09:04:30;10.18;;;3.80;;
51248;SDS011;39642;47.556;18.728;2023-07-02T09:07:03;9.75;;;3.50;;
51248;SDS011;39642;47.556;18.728;2023-07-02T09:09:43;10.68;;;3.45;;
51248;SDS011;39642;47.556;18.728;2023-07-02T09:15:01;9.60;;;3.45;;
51248;SDS011;39642;47.556;18.728;2023-07-02T09:17:30;9.85;;;3.53;;
51248;SDS011;39642;47.556;18.728;2023-07-02T09:19:58;10.05;;;3.75;;
51248;SDS011;39642;47.556;18.728;2023-07-02T09:22:27;9.30;;;3.60;;
51248;SDS011;39642;47.556;18.728;2023-07-02T09:24:54;10.63;;;3.50;;
51248;SDS011;39642;47.556;18.728;2023-07-02T09:30:05;10.20;;;3.78;;
51248;SDS011;39642;47.556;18.728;2023-07-02T09:32:32;9.63;;;3.87;;
51248;SDS011;39642;47.556;18.728;2023-07-02T09:34:58;9.98;;;3.65;;
51248;SDS011;39642;47.556;18.728;2023-07-02T09:37:24;9.98;;;3.75;;
51248;SDS011;39642;47.556;18.728;2023-07-02T09:39:50;9.48;;;3.50;;
51248;SDS011;39642;47.556;18.728;2023-07-02T09:42:17;9.82;;;3.60;;
51248;SDS011;39642;47.556;18.728;2023-07-02T09:44:45;9.70;;;3.40;;
51248;SDS011;39642;47.556;18.728;2023-07-02T09:47:12;9.98;;;3.72;;
51248;SDS011;39642;47.556;18.728;2023-07-02T09:49:39;9.43;;;3.65;;
51248;SDS011;39642;47.556;18.728;2023-07-02T09:52:08;9.10;;;3.35;;
51248;SDS011;39642;47.556;18.728;2023-07-02T09:54:35;9.90;;;3.67;;
51248;SDS011;39642;47.556;18.728;2023-07-02T09:57:02;10.25;;;3.75;;
51248;SDS011;39642;47.556;18.728;2023-07-02T09:59:28;9.68;;;3.72;;
51248;SDS011;39642;47.556;18.728;2023-07-02T10:01:55;9.80;;;3.62;;
51248;SDS011;39642;47.556;18.728;2023-07-02T10:04:21;10.27;;;3.65;;
51248;SDS011;39642;47.556;18.728;2023-07-02T10:06:51;9.48;;;3.55;;
51248;SDS011;39642;47.556;18.728;2023-07-02T10:09:22;9.30;;;3.40;;
51248;SDS011;39642;47.556;18.728;2023-07-02T10:12:00;9.43;;;3.30;;
51248;SDS011;39642;47.556;18.728;2023-07-02T10:14:26;11.27;;;3.72;;
51248;SDS011;39642;47.556;18.728;2023-07-02T10:16:53;9.57;;;3.58;;
51248;SDS011;39642;47.556;18.728;2023-07-02T10:19:20;9.63;;;3.75;;
51248;SDS011;39642;47.556;18.728;2023-07-02T10:21:47;10.10;;;3.62;;
51248;SDS011;39642;47.556;18.728;2023-07-02T10:24:29;9.63;;;3.37;;
51248;SDS011;39642;47.556;18.728;2023-07-02T10:26:59;10.25;;;3.33;;
51248;SDS011;39642;47.556;18.728;2023-07-02T10:29:26;9.60;;;3.50;;
51248;SDS011;39642;47.556;18.728;2023-07-02T10:31:54;9.07;;;3.53;;
51248;SDS011;39642;47.556;18.728;2023-07-02T10:34:34;9.25;;;3.35;;
51248;SDS011;39642;47.556;18.728;2023-07-02T10:37:01;9.02;;;3.58;;
51248;SDS011;39642;47.556;18.728;2023-07-02T10:39:28;9.05;;;3.40;;
51248;SDS011;39642;47.556;18.728;2023-07-02T10:42:08;9.65;;;3.35;;
51248;SDS011;39642;47.556;18.728;2023-07-02T10:44:46;9.63;;;3.47;;
51248;SDS011;39642;47.556;18.728;2023-07-02T10:47:16;9.55;;;3.47;;
51248;SDS011;39642;47.556;18.728;2023-07-02T10:49:42;10.13;;;3.78;;
51248;SDS011;39642;47.556;18.728;2023-07-02T10:52:08;9.50;;;3.40;;
51248;SDS011;39642;47.556;18.728;2023-07-02T10:54:43;8.95;;;3.42;;
51248;SDS011;39642;47.556;18.728;2023-07-02T10:57:12;9.85;;;3.58;;
51248;SDS011;39642;47.556;18.728;2023-07-02T10:59:40;9.35;;;3.50;;
51248;SDS011;39642;47.556;18.728;2023-07-02T11:02:06;9.85;;;3.40;;
51248;SDS011;39642;47.556;18.728;2023-07-02T11:04:33;9.98;;;3.78;;
51248;SDS011;39642;47.556;18.728;2023-07-02T11:07:01;9.98;;;3.65;;
51248;SDS011;39642;47.556;18.728;2023-07-02T11:09:27;8.93;;;3.40;;
51248;SDS011;39642;47.556;18.728;2023-07-02T11:11:57;8.70;;;3.30;;
51248;SDS011;39642;47.556;18.728;2023-07-02T11:14:33;9.80;;;3.35;;
51248;SDS011;39642;47.556;18.728;2023-07-02T11:17:02;9.18;;;3.28;;
51248;SDS011;39642;47.556;18.728;2023-07-02T11:19:34;9.82;;;3.45;;
51248;SDS011;39642;47.556;18.728;2023-07-02T11:22:00;9.18;;;3.33;;
51248;SDS011;39642;47.556;18.728;2023-07-02T11:24:27;9.75;;;3.55;;
51248;SDS011;39642;47.556;18.728;2023-07-02T11:26:56;8.95;;;3.40;;
51248;SDS011;39642;47.556;18.728;2023-07-02T11:29:23;9.43;;;3.58;;
51248;SDS011;39642;47.556;18.728;2023-07-02T11:31:49;9.18;;;3.45;;
51248;SDS011;39642;47.556;18.728;2023-07-02T11:34:20;10.90;;;3.55;;
51248;SDS011;39642;47.556;18.728;2023-07-02T11:36:47;9.55;;;3.50;;
51248;SDS011;39642;47.556;18.728;2023-07-02T11:39:13;9.20;;;3.30;;
51248;SDS011;39642;47.556;18.728;2023-07-02T11:41:42;9.10;;;3.50;;
51248;SDS011;39642;47.556;18.728;2023-07-02T11:44:09;9.82;;;3.70;;
51248;SDS011;39642;47.556;18.728;2023-07-02T11:46:35;9.15;;;3.10;;
51248;SDS011;39642;47.556;18.728;2023-07-02T11:49:02;9.30;;;3.58;;
51248;SDS011;39642;47.556;18.728;2023-07-02T11:51:36;9.32;;;3.40;;
51248;SDS011;39642;47.556;18.728;2023-07-02T11:54:04;9.60;;;3.40;;
51248;SDS011;39642;47.556;18.728;2023-07-02T11:56:30;9.60;;;3.40;;
51248;SDS011;39642;47.556;18.728;2023-07-02T11:58:56;10.80;;;3.37;;
51248;SDS011;39642;47.556;18.728;2023-07-02T12:01:22;9.02;;;3.30;;
51248;SDS011;39642;47.556;18.728;2023-07-02T12:03:48;9.65;;;3.50;;
51248;SDS011;39642;47.556;18.728;2023-07-02T12:06:14;9.75;;;3.40;;
51248;SDS011;39642;47.556;18.728;2023-07-02T12:08:40;9.50;;;3.60;;
51248;SDS011;39642;47.556;18.728;2023-07-02T12:11:06;9.45;;;3.60;;
51248;SDS011;39642;47.556;18.728;2023-07-02T12:13:32;8.95;;;3.40;;
51248;SDS011;39642;47.556;18.728;2023-07-02T12:15:58;11.15;;;3.55;;
51248;SDS011;39642;47.556;18.728;2023-07-02T12:18:24;9.43;;;3.70;;
51248;SDS011;39642;47.556;18.728;2023-07-02T12:20:50;9.45;;;3.20;;
51248;SDS011;39642;47.556;18.728;2023-07-02T12:23:16;8.95;;;3.30;;
51248;SDS011;39642;47.556;18.728;2023-07-02T12:25:42;9.55;;;3.60;;
51248;SDS011;39642;47.556;18.728;2023-07-02T12:28:08;10.75;;;3.55;;
51248;SDS011;39642;47.556;18.728;2023-07-02T12:30:33;8.80;;;3.10;;
51248;SDS011;39642;47.556;18.728;2023-07-02T12:32:59;9.60;;;3.30;;
51248;SDS011;39642;47.556;18.728;2023-07-02T12:35:25;10.00;;;3.62;;
51248;SDS011;39642;47.556;18.728;2023-07-02T12:37:51;9.13;;;3.20;;
51248;SDS011;39642;47.556;18.728;2023-07-02T12:40:19;9.65;;;3.40;;
51248;SDS011;39642;47.556;18.728;2023-07-02T12:42:46;8.43;;;3.00;;
51248;SDS011;39642;47.556;18.728;2023-07-02T12:45:13;9.52;;;3.45;;
51248;SDS011;39642;47.556;18.728;2023-07-02T12:47:40;9.88;;;3.25;;
51248;SDS011;39642;47.556;18.728;2023-07-02T12:50:07;9.73;;;3.50;;
51248;SDS011;39642;47.556;18.728;2023-07-02T12:52:34;8.73;;;3.03;;
51248;SDS011;39642;47.556;18.728;2023-07-02T12:55:00;9.10;;;3.20;;
51248;SDS011;39642;47.556;18.728;2023-07-02T12:57:26;8.77;;;3.00;;
51248;SDS011;39642;47.556;18.728;2023-07-02T12:59:53;9.70;;;3.25;;
51248;SDS011;39642;47.556;18.728;2023-07-02T13:02:20;9.02;;;3.10;;
51248;SDS011;39642;47.556;18.728;2023-07-02T13:04:47;8.77;;;3.00;;
51248;SDS011;39642;47.556;18.728;2023-07-02T13:07:13;9.82;;;3.40;;
51248;SDS011;39642;47.556;18.728;2023-07-02T13:09:38;9.07;;;3.20;;
51248;SDS011;39642;47.556;18.728;2023-07-02T13:12:05;9.90;;;3.40;;
51248;SDS011;39642;47.556;18.728;2023-07-02T13:14:31;9.10;;;3.33;;
51248;SDS011;39642;47.556;18.728;2023-07-02T13:16:57;9.63;;;3.47;;
51248;SDS011;39642;47.556;18.728;2023-07-02T13:19:24;8.43;;;2.87;;
51248;SDS011;39642;47.556;18.728;2023-07-02T13:21:50;9.07;;;3.20;;
51248;SDS011;39642;47.556;18.728;2023-07-02T13:24:16;9.65;;;3.05;;
51248;SDS011;39642;47.556;18.728;2023-07-02T13:26:42;9.48;;;3.05;;
51248;SDS011;39642;47.556;18.728;2023-07-02T13:29:08;8.48;;;2.97;;
51248;SDS011;39642;47.556;18.728;2023-07-02T13:31:34;8.90;;;3.37;;
51248;SDS011;39642;47.556;18.728;2023-07-02T13:34:00;10.15;;;3.60;;
51248;SDS011;39642;47.556;18.728;2023-07-02T13:36:25;11.00;;;3.20;;
51248;SDS011;39642;47.556;18.728;2023-07-02T13:38:54;8.65;;;3.10;;
51248;SDS011;39642;47.556;18.728;2023-07-02T13:41:21;9.15;;;3.10;;
51248;SDS011;39642;47.556;18.728;2023-07-02T13:43:47;9.52;;;3.10;;
51248;SDS011;39642;47.556;18.728;2023-07-02T13:46:12;9.70;;;3.08;;
51248;SDS011;39642;47.556;18.728;2023-07-02T13:48:39;8.25;;;3.12;;
51248;SDS011;39642;47.556;18.728;2023-07-02T13:51:05;8.63;;;3.00;;
51248;SDS011;39642;47.556;18.728;2023-07-02T13:53:31;8.32;;;2.97;;
51248;SDS011;39642;47.556;18.728;2023-07-02T13:55:58;8.57;;;2.90;;
51248;SDS011;39642;47.556;18.728;2023-07-02T13:58:23;8.63;;;2.97;;
51248;SDS011;39642;47.556;18.728;2023-07-02T14:00:49;8.43;;;3.17;;
51248;SDS011;39642;47.556;18.728;2023-07-02T14:03:15;9.32;;;3.17;;
51248;SDS011;39642;47.556;18.728;2023-07-02T14:05:41;9.50;;;3.40;;
51248;SDS011;39642;47.556;18.728;2023-07-02T14:08:07;9.48;;;3.00;;
51248;SDS011;39642;47.556;18.728;2023-07-02T14:10:34;8.20;;;2.90;;
51248;SDS011;39642;47.556;18.728;2023-07-02T14:13:00;8.55;;;2.97;;
51248;SDS011;39642;47.556;18.728;2023-07-02T14:15:26;8.75;;;2.85;;
51248;SDS011;39642;47.556;18.728;2023-07-02T14:17:53;8.95;;;2.90;;
51248;SDS011;39642;47.556;18.728;2023-07-02T14:20:20;8.45;;;3.00;;
51248;SDS011;39642;47.556;18.728;2023-07-02T14:22:46;9.85;;;3.33;;
51248;SDS011;39642;47.556;18.728;2023-07-02T14:25:12;9.65;;;3.30;;
51248;SDS011;39642;47.556;18.728;2023-07-02T14:27:38;10.23;;;3.90;;
51248;SDS011;39642;47.556;18.728;2023-07-02T14:30:04;10.07;;;3.90;;
51248;SDS011;39642;47.556;18.728;2023-07-02T14:32:36;9.35;;;3.75;;